Strona główna
METAR-TAF:

METAR-TAF

Lotnisko :

Vannes, Francja

Szerokość geograficzna: 47-43-19N, Długość geograficzna: 2-43-41W, wysokość: 130 m

Aktualna obserwacja pogody

Raport powstał 33 minut temu, godzina 08:30 UTC
Wiatr 3 kt z kierunków zmiennych
Temperatura 19°C
Wilgotność 83%
Ciśnienie 1022 hPa
Widzialność 10 km lub więcej
Mało chmury na wysokości 1200 ft
Rozproszone chmury na wysokości 2900 ft
Przerywane chmury na wysokości 3400 ft

METAR: LFRV 210830Z AUTO VRB03KT 9999 FEW012 SCT029 BKN034 19/16 Q1022

czas: 11:03 (09:03 UTC)


TAF: brakujący

Obserwacja i prognoza pogody dla ponad 4000 lotnisk (raport METAR i TAF).

Dostępne stacje oznaczono żółtymi i czerwonymi punktami na mapie.

Najedź kursorem aby zobaczyć nazwę stacji.

Kliknij aby zobaczyć obserwacje i prognozy pogody.

Aby zmienić mapę: kliknij na zielony przycisk z czarnym krzyżykiem, aby powiększyć; na zielony przycisk z myślnikiem, aby pomniejszyć; na zielone strzałki, aby przejść do map sąsiednich.


METAR-TAF: